sensor_id;sensor_type;location;lat;lon;timestamp;P1;durP1;ratioP1;P2;durP2;ratioP2
37377;SDS011;23248;48.120;14.854;2022-08-03T05:02:49;12.27;;;9.02;;
37377;SDS011;23248;48.120;14.854;2022-08-03T05:05:15;11.68;;;8.35;;
37377;SDS011;23248;48.120;14.854;2022-08-03T05:07:41;9.65;;;8.65;;
37377;SDS011;23248;48.120;14.854;2022-08-03T05:12:34;12.82;;;9.27;;
37377;SDS011;23248;48.120;14.854;2022-08-03T05:15:00;13.77;;;10.70;;
37377;SDS011;23248;48.120;14.854;2022-08-03T05:17:27;13.95;;;9.68;;
37377;SDS011;23248;48.120;14.854;2022-08-03T05:19:53;12.18;;;10.90;;
37377;SDS011;23248;48.120;14.854;2022-08-03T05:24:45;14.13;;;11.27;;
37377;SDS011;23248;48.120;14.854;2022-08-03T05:27:11;17.63;;;11.10;;
37377;SDS011;23248;48.120;14.854;2022-08-03T05:29:43;15.23;;;12.13;;
37377;SDS011;23248;48.120;14.854;2022-08-03T05:32:11;15.35;;;10.60;;
37377;SDS011;23248;48.120;14.854;2022-08-03T05:34:37;14.43;;;10.63;;
37377;SDS011;23248;48.120;14.854;2022-08-03T05:37:02;18.00;;;10.88;;
37377;SDS011;23248;48.120;14.854;2022-08-03T05:39:28;19.27;;;11.15;;
37377;SDS011;23248;48.120;14.854;2022-08-03T05:41:54;15.38;;;11.65;;
37377;SDS011;23248;48.120;14.854;2022-08-03T05:44:19;20.13;;;10.73;;
37377;SDS011;23248;48.120;14.854;2022-08-03T05:49:11;15.48;;;8.80;;
37377;SDS011;23248;48.120;14.854;2022-08-03T05:51:37;12.25;;;7.50;;
37377;SDS011;23248;48.120;14.854;2022-08-03T06:03:48;7.10;;;6.40;;
37377;SDS011;23248;48.120;14.854;2022-08-03T06:11:06;6.47;;;5.32;;
37377;SDS011;23248;48.120;14.854;2022-08-03T06:13:33;7.50;;;5.30;;
37377;SDS011;23248;48.120;14.854;2022-08-03T07:07:24;3.58;;;3.33;;
37377;SDS011;23248;48.120;14.854;2022-08-03T07:09:50;5.43;;;3.50;;
37377;SDS011;23248;48.120;14.854;2022-08-03T07:12:16;4.30;;;3.90;;
37377;SDS011;23248;48.120;14.854;2022-08-03T07:14:42;5.45;;;3.78;;
37377;SDS011;23248;48.120;14.854;2022-08-03T07:17:08;3.78;;;3.47;;
37377;SDS011;23248;48.120;14.854;2022-08-03T07:19:33;4.18;;;3.63;;
37377;SDS011;23248;48.120;14.854;2022-08-03T07:36:33;9.95;;;3.40;;
37377;SDS011;23248;48.120;14.854;2022-08-03T07:38:58;4.40;;;3.33;;
37377;SDS011;23248;48.120;14.854;2022-08-03T07:41:24;4.97;;;3.63;;
37377;SDS011;23248;48.120;14.854;2022-08-03T07:43:50;3.83;;;3.30;;
37377;SDS011;23248;48.120;14.854;2022-08-03T07:46:15;3.50;;;3.30;;
37377;SDS011;23248;48.120;14.854;2022-08-03T07:48:41;4.72;;;3.20;;
37377;SDS011;23248;48.120;14.854;2022-08-03T07:51:07;7.50;;;3.10;;
37377;SDS011;23248;48.120;14.854;2022-08-03T07:53:32;3.10;;;2.90;;
37377;SDS011;23248;48.120;14.854;2022-08-03T07:55:58;2.90;;;2.70;;
37377;SDS011;23248;48.120;14.854;2022-08-03T07:58:24;3.60;;;2.80;;
37377;SDS011;23248;48.120;14.854;2022-08-03T08:00:51;3.80;;;2.30;;
37377;SDS011;23248;48.120;14.854;2022-08-03T08:03:16;2.58;;;2.40;;
37377;SDS011;23248;48.120;14.854;2022-08-03T08:05:43;2.90;;;2.70;;
37377;SDS011;23248;48.120;14.854;2022-08-03T08:08:09;3.03;;;2.70;;
37377;SDS011;23248;48.120;14.854;2022-08-03T08:10:35;4.18;;;2.90;;
37377;SDS011;23248;48.120;14.854;2022-08-03T08:17:54;5.82;;;2.83;;
37377;SDS011;23248;48.120;14.854;2022-08-03T08:20:24;4.82;;;3.17;;
37377;SDS011;23248;48.120;14.854;2022-08-03T08:22:50;3.55;;;3.00;;
37377;SDS011;23248;48.120;14.854;2022-08-03T08:27:49;7.55;;;2.63;;
37377;SDS011;23248;48.120;14.854;2022-08-03T08:30:16;2.67;;;2.50;;
37377;SDS011;23248;48.120;14.854;2022-08-03T08:32:43;3.08;;;2.78;;
37377;SDS011;23248;48.120;14.854;2022-08-03T08:35:09;5.72;;;2.83;;
37377;SDS011;23248;48.120;14.854;2022-08-03T13:52:32;1.70;;;1.70;;
37377;SDS011;23248;48.120;14.854;2022-08-03T13:54:59;4.88;;;1.77;;
37377;SDS011;23248;48.120;14.854;2022-08-03T13:57:25;2.15;;;1.77;;
37377;SDS011;23248;48.120;14.854;2022-08-03T13:59:51;2.00;;;1.90;;
37377;SDS011;23248;48.120;14.854;2022-08-03T14:02:17;2.00;;;1.90;;
37377;SDS011;23248;48.120;14.854;2022-08-03T14:04:42;1.92;;;1.83;;
37377;SDS011;23248;48.120;14.854;2022-08-03T14:07:08;1.70;;;1.60;;
37377;SDS011;23248;48.120;14.854;2022-08-03T14:09:34;1.60;;;1.60;;
37377;SDS011;23248;48.120;14.854;2022-08-03T14:12:00;5.00;;;1.98;;
37377;SDS011;23248;48.120;14.854;2022-08-03T14:14:25;3.42;;;1.60;;
37377;SDS011;23248;48.120;14.854;2022-08-03T14:16:51;2.38;;;1.60;;
37377;SDS011;23248;48.120;14.854;2022-08-03T14:19:16;2.72;;;1.70;;
37377;SDS011;23248;48.120;14.854;2022-08-03T17:48:46;3.38;;;1.70;;
37377;SDS011;23248;48.120;14.854;2022-08-03T18:19:28;2.53;;;1.90;;
37377;SDS011;23248;48.120;14.854;2022-08-03T18:21:59;2.00;;;1.90;;
37377;SDS011;23248;48.120;14.854;2022-08-03T18:24:26;2.90;;;2.03;;
37377;SDS011;23248;48.120;14.854;2022-08-03T19:01:50;2.28;;;2.15;;
37377;SDS011;23248;48.120;14.854;2022-08-03T19:07:08;1.85;;;1.77;;
